Time;durP1;ratioP1;P1;durP2;ratioP2;P2;SDS_P1;SDS_P2;PMS_P1;PMS_P2;Temp;Humidity;BMP_temperature;BMP_pressure;BME280_temperature;BME280_humidity;BME280_pressure;Samples;Min_cycle;Max_cycle;Signal;HPM_P1;HPM_P2
2024/02/23 00:01:50;;;;;;;11.73;11.07;;;6.00;99.90;;;;;;5013388;28;21004;-72
2024/02/23 00:04:19;;;;;;;28.80;27.60;;;5.80;99.90;;;;;;5004685;28;20472;-74
2024/02/23 00:06:46;;;;;;;10.03;9.43;;;5.60;99.90;;;;;;5013485;28;20464;-74
2024/02/23 00:09:12;;;;;;;18.67;17.77;;;5.50;99.90;;;;;;5013842;28;20484;-74
2024/02/23 00:11:44;;;;;;;16.80;15.97;;;5.30;99.90;;;;;;5013702;28;20816;-74
2024/02/23 00:14:11;;;;;;;12.57;11.77;;;5.30;99.90;;;;;;5012925;28;20481;-74
2024/02/23 00:16:39;;;;;;;12.53;11.80;;;5.30;99.90;;;;;;5013480;28;20453;-75
2024/02/23 00:19:07;;;;;;;23.97;22.87;;;5.30;99.90;;;;;;5013105;28;20461;-75
2024/02/23 00:21:35;;;;;;;18.67;17.77;;;5.30;99.90;;;;;;5013536;28;20463;-75
2024/02/23 00:24:02;;;;;;;26.90;25.73;;;5.30;99.90;;;;;;5012675;28;20481;-75
2024/02/23 00:26:29;;;;;;;28.03;26.87;;;5.30;99.90;;;;;;5013173;28;20461;-75
2024/02/23 00:28:56;;;;;;;29.83;28.63;;;5.30;99.90;;;;;;5013280;28;20481;-75
2024/02/23 00:31:24;;;;;;;37.97;36.37;;;5.30;99.90;;;;;;5005116;28;20457;-75
2024/02/23 00:33:51;;;;;;;48.17;46.17;;;5.40;99.90;;;;;;5012245;28;20506;-75
2024/02/23 00:36:17;;;;;;;75.20;72.57;;;5.20;99.90;;;;;;4994029;28;20945;-75
2024/02/23 00:38:46;;;;;;;56.00;53.97;;;5.20;99.90;;;;;;4993578;28;20450;-75
2024/02/23 00:41:16;;;;;;;60.47;58.20;;;5.20;99.90;;;;;;4993318;28;20454;-75
2024/02/23 00:43:43;;;;;;;51.30;49.37;;;5.20;99.90;;;;;;4998860;28;20862;-75
2024/02/23 00:46:10;;;;;;;68.50;66.07;;;5.30;99.90;;;;;;5004628;28;20456;-75
2024/02/23 00:48:37;;;;;;;83.47;80.53;;;5.40;99.90;;;;;;5012737;28;20567;-75
2024/02/23 00:51:04;;;;;;;87.70;84.43;;;5.40;99.90;;;;;;5011649;28;20844;-75
2024/02/23 00:53:32;;;;;;;86.73;83.73;;;5.20;99.90;;;;;;5012292;28;20504;-74
2024/02/23 00:56:00;;;;;;;93.90;90.73;;;5.20;99.90;;;;;;5012429;28;20608;-75
2024/02/23 00:58:27;;;;;;;84.37;81.07;;;5.30;99.90;;;;;;5012512;28;20475;-75
2024/02/23 01:00:54;;;;;;;88.07;84.83;;;5.30;99.90;;;;;;5012378;28;20453;-75
2024/02/23 01:03:21;;;;;;;74.83;72.07;;;5.30;99.90;;;;;;4992759;28;20477;-75
2024/02/23 01:05:48;;;;;;;71.57;68.83;;;5.20;99.90;;;;;;4999751;28;20453;-75
2024/02/23 01:08:15;;;;;;;60.87;58.60;;;5.20;99.90;;;;;;5009924;28;20462;-75
2024/02/23 01:10:42;;;;;;;64.63;62.33;;;5.20;99.90;;;;;;4992755;28;20460;-75
2024/02/23 01:13:10;;;;;;;48.17;46.27;;;5.20;99.90;;;;;;5010013;28;20488;-75
2024/02/23 01:15:37;;;;;;;37.80;36.30;;;5.20;99.90;;;;;;5012692;28;20448;-75
2024/02/23 01:18:05;;;;;;;33.60;31.83;;;5.30;99.90;;;;;;5012512;28;20463;-76
2024/02/23 01:20:32;;;;;;;29.53;28.23;;;5.30;99.90;;;;;;5004222;28;20819;-76
2024/02/23 01:22:59;;;;;;;31.67;30.17;;;5.30;99.90;;;;;;5011934;28;20850;-75
2024/02/23 01:25:29;;;;;;;29.67;28.27;;;5.30;99.90;;;;;;5012502;28;20453;-75
2024/02/23 01:27:55;;;;;;;26.40;25.20;;;5.20;99.90;;;;;;5012809;28;20524;-75
2024/02/23 01:30:24;;;;;;;27.10;25.87;;;5.20;99.90;;;;;;5012143;28;21046;-75
2024/02/23 01:32:51;;;;;;;27.23;26.03;;;5.20;99.90;;;;;;5003990;28;20544;-75
2024/02/23 01:35:17;;;;;;;28.30;26.63;;;5.20;99.90;;;;;;5012251;28;20465;-75
2024/02/23 01:37:44;;;;;;;32.57;31.07;;;5.20;99.90;;;;;;5007493;28;20941;-74
2024/02/23 01:40:12;;;;;;;42.17;40.27;;;5.20;99.90;;;;;;5008492;28;20459;-73
2024/02/23 01:42:39;;;;;;;23.77;22.47;;;5.10;99.90;;;;;;4998000;28;20520;-75
2024/02/23 01:45:07;;;;;;;26.77;25.37;;;5.20;99.90;;;;;;5005413;28;20458;-75
2024/02/23 01:47:35;;;;;;;22.53;21.43;;;5.10;99.90;;;;;;4996604;28;20461;-74
2024/02/23 01:50:03;;;;;;;17.53;16.73;;;5.10;99.90;;;;;;4996458;28;20862;-75
2024/02/23 01:52:30;;;;;;;18.90;17.70;;;5.20;99.90;;;;;;4996106;28;20989;-74
2024/02/23 01:54:57;;;;;;;18.70;17.80;;;5.10;99.90;;;;;;5012518;28;20461;-75
2024/02/23 01:57:25;;;;;;;21.63;20.53;;;5.10;99.90;;;;;;5004617;28;20561;-75
2024/02/23 01:59:52;;;;;;;26.93;25.53;;;5.00;99.90;;;;;;5011914;28;20452;-74
2024/02/23 02:02:19;;;;;;;38.33;36.83;;;5.00;99.90;;;;;;5004693;28;20548;-72
2024/02/23 02:04:48;;;;;;;30.97;29.67;;;5.00;99.90;;;;;;5010459;28;20448;-74
2024/02/23 02:07:15;;;;;;;35.27;33.70;;;5.10;99.90;;;;;;5014279;28;20449;-74
2024/02/23 02:09:41;;;;;;;28.40;27.10;;;5.00;99.90;;;;;;5015668;28;20495;-74
2024/02/23 02:12:09;;;;;;;29.50;28.03;;;5.00;99.90;;;;;;4997976;28;20458;-74
2024/02/23 02:14:35;;;;;;;21.27;20.03;;;4.90;99.90;;;;;;4995703;28;20460;-75
2024/02/23 02:17:02;;;;;;;17.80;16.70;;;5.00;99.90;;;;;;4996041;28;20453;-74
2024/02/23 02:19:29;;;;;;;19.80;18.80;;;4.90;99.90;;;;;;4995955;28;20453;-73
2024/02/23 02:21:57;;;;;;;17.70;16.80;;;4.90;99.90;;;;;;4996062;28;20458;-74
2024/02/23 02:24:24;;;;;;;15.03;14.23;;;4.90;99.90;;;;;;4995758;28;20474;-74
2024/02/23 02:26:51;;;;;;;14.87;14.07;;;4.90;99.90;;;;;;5011742;28;20452;-74
2024/02/23 02:29:18;;;;;;;15.50;14.60;;;4.90;99.90;;;;;;5015494;28;20496;-74
2024/02/23 02:31:44;;;;;;;14.60;13.80;;;5.00;99.90;;;;;;5015539;28;20968;-74
2024/02/23 02:34:12;;;;;;;14.83;13.90;;;5.00;99.90;;;;;;5013465;28;20999;-73
2024/02/23 02:36:39;;;;;;;12.50;11.70;;;5.00;99.90;;;;;;5015442;28;20515;-74
2024/02/23 02:39:08;;;;;;;11.67;10.97;;;5.00;99.90;;;;;;5015313;28;20497;-73
2024/02/23 02:41:34;;;;;;;13.47;12.57;;;5.00;99.90;;;;;;5015141;28;20457;-73
2024/02/23 02:44:01;;;;;;;13.47;12.67;;;4.90;99.90;;;;;;5014499;28;20487;-73
2024/02/23 02:46:28;;;;;;;12.03;11.23;;;5.00;99.90;;;;;;5015018;28;20819;-73
2024/02/23 02:48:55;;;;;;;12.67;11.77;;;4.90;99.90;;;;;;5014833;28;20456;-73
2024/02/23 02:51:22;;;;;;;11.43;10.60;;;4.90;99.90;;;;;;5015178;28;20459;-73
2024/02/23 02:53:48;;;;;;;12.70;11.40;;;4.90;99.90;;;;;;5014568;28;20479;-74
2024/02/23 02:56:17;;;;;;;14.87;13.77;;;4.90;99.90;;;;;;5014986;28;20460;-73
2024/02/23 02:58:43;;;;;;;14.30;12.97;;;4.90;99.90;;;;;;5007243;28;20462;-73
2024/02/23 03:01:10;;;;;;;14.37;13.37;;;4.90;99.90;;;;;;5013094;28;20457;-73
2024/02/23 03:03:38;;;;;;;17.57;16.40;;;4.80;99.90;;;;;;5014089;28;20876;-74
2024/02/23 03:06:06;;;;;;;18.67;17.27;;;4.80;99.90;;;;;;5014656;28;20449;-73
2024/02/23 03:08:32;;;;;;;14.60;13.60;;;4.70;99.90;;;;;;5013731;28;20552;-74
2024/02/23 03:10:59;;;;;;;14.57;13.37;;;4.90;99.90;;;;;;5014340;28;20876;-73
2024/02/23 03:13:27;;;;;;;15.13;14.33;;;4.90;99.90;;;;;;4994505;28;20474;-73
2024/02/23 03:15:54;;;;;;;14.87;13.67;;;4.90;99.90;;;;;;4995101;28;20841;-73
2024/02/23 03:18:21;;;;;;;16.13;14.97;;;4.80;99.90;;;;;;5006288;28;20457;-74
2024/02/23 03:20:48;;;;;;;12.70;11.70;;;4.70;99.90;;;;;;5014464;28;20949;-73
2024/02/23 03:23:15;;;;;;;13.20;12.30;;;4.70;99.90;;;;;;5013781;28;20473;-73
2024/02/23 03:25:41;;;;;;;14.40;12.27;;;4.70;99.90;;;;;;5000329;28;20458;-73
2024/02/23 03:28:08;;;;;;;10.90;10.10;;;4.70;99.90;;;;;;4994735;28;20464;-73
2024/02/23 03:30:36;;;;;;;11.50;10.70;;;4.60;99.90;;;;;;5006247;28;20472;-73
2024/02/23 03:33:03;;;;;;;11.10;10.20;;;4.60;99.90;;;;;;4997107;28;20474;-74
2024/02/23 03:35:30;;;;;;;9.80;8.83;;;4.70;99.90;;;;;;4994741;28;20841;-74
2024/02/23 03:37:57;;;;;;;8.60;7.80;;;4.80;99.90;;;;;;5003088;28;20456;-73
2024/02/23 03:40:24;;;;;;;8.13;7.33;;;4.50;99.90;;;;;;5005980;28;20457;-73
2024/02/23 03:42:51;;;;;;;6.70;6.00;;;4.60;99.90;;;;;;5013614;28;20479;-74
2024/02/23 03:45:18;;;;;;;6.33;5.70;;;4.70;99.90;;;;;;5013733;28;20548;-74
2024/02/23 03:47:46;;;;;;;11.23;5.47;;;4.70;99.90;;;;;;5014126;28;20861;-74
2024/02/23 03:50:13;;;;;;;7.10;4.50;;;4.70;99.90;;;;;;5013803;28;20516;-74
2024/02/23 03:52:40;;;;;;;5.97;4.30;;;4.70;99.90;;;;;;5013969;28;20473;-74
2024/02/23 03:55:08;;;;;;;6.93;4.30;;;4.70;99.90;;;;;;5013890;28;20460;-74
2024/02/23 03:57:34;;;;;;;11.07;3.57;;;4.70;99.90;;;;;;5013988;28;20457;-73
2024/02/23 04:00:02;;;;;;;7.73;4.10;;;4.80;99.90;;;;;;5005663;28;20493;-73
2024/02/23 04:02:29;;;;;;;6.67;6.07;;;4.80;99.90;;;;;;5006731;28;20469;-70
2024/02/23 04:04:57;;;;;;;7.93;4.90;;;4.80;99.90;;;;;;5014159;28;20952;-74
2024/02/23 04:07:24;;;;;;;6.60;5.27;;;4.80;99.90;;;;;;5013872;28;20560;-73
2024/02/23 04:09:52;;;;;;;8.90;3.60;;;4.80;99.90;;;;;;5014016;28;20485;-74
2024/02/23 04:12:19;;;;;;;6.03;2.70;;;4.90;99.90;;;;;;5010581;28;20564;-74
2024/02/23 04:14:46;;;;;;;5.87;2.60;;;5.00;99.90;;;;;;5000472;28;20457;-74
2024/02/23 04:17:13;;;;;;;7.00;2.83;;;4.90;99.90;;;;;;5013881;28;20453;-74
2024/02/23 04:19:43;;;;;;;8.33;3.47;;;5.00;99.90;;;;;;5015264;28;20582;-75
2024/02/23 04:22:12;;;;;;;10.70;2.87;;;5.00;99.90;;;;;;5005923;28;20487;-74
2024/02/23 04:24:40;;;;;;;5.10;2.13;;;5.10;99.90;;;;;;5013265;28;20547;-73
2024/02/23 04:27:07;;;;;;;5.07;2.40;;;5.30;99.90;;;;;;5013774;28;20460;-73
2024/02/23 04:29:35;;;;;;;6.00;1.97;;;5.30;99.90;;;;;;5013202;28;20487;-74
2024/02/23 04:32:02;;;;;;;9.90;2.50;;;5.40;99.90;;;;;;5013228;28;20512;-73
2024/02/23 04:34:29;;;;;;;5.80;2.20;;;5.30;99.90;;;;;;5012856;28;20465;-74
2024/02/23 04:36:56;;;;;;;8.43;2.10;;;5.40;99.90;;;;;;5005316;28;20462;-74
2024/02/23 04:39:24;;;;;;;8.43;2.30;;;5.50;99.90;;;;;;4993272;28;20454;-74
2024/02/23 04:41:51;;;;;;;9.20;2.33;;;5.40;99.90;;;;;;4993567;28;20461;-74
2024/02/23 04:44:18;;;;;;;5.70;1.80;;;5.50;99.90;;;;;;4993042;28;20488;-73
2024/02/23 04:46:45;;;;;;;8.00;2.10;;;5.40;99.90;;;;;;4999710;28;20475;-74
2024/02/23 04:49:13;;;;;;;6.60;1.97;;;5.50;99.90;;;;;;5012774;28;20453;-74
2024/02/23 04:51:40;;;;;;;5.13;2.13;;;5.50;99.90;;;;;;5012768;28;20480;-74
2024/02/23 04:54:07;;;;;;;5.50;2.20;;;5.40;99.90;;;;;;4994773;28;21007;-73
2024/02/23 04:56:35;;;;;;;6.20;2.27;;;5.40;99.90;;;;;;4998145;28;20670;-74
2024/02/23 04:59:03;;;;;;;5.50;2.40;;;5.30;99.90;;;;;;5012632;28;20953;-74
2024/02/23 05:01:30;;;;;;;11.20;2.13;;;5.30;99.90;;;;;;5012727;28;20961;-74
2024/02/23 05:03:56;;;;;;;5.40;1.80;;;5.20;99.90;;;;;;4996306;28;20489;-73
2024/02/23 05:06:23;;;;;;;5.37;1.93;;;5.30;99.90;;;;;;5001172;28;20450;-73
2024/02/23 05:08:50;;;;;;;10.73;2.57;;;5.10;99.90;;;;;;5000255;28;20453;-73
2024/02/23 05:11:17;;;;;;;7.97;2.40;;;5.00;99.90;;;;;;5012876;28;20542;-74
2024/02/23 05:13:46;;;;;;;5.27;3.33;;;5.00;99.90;;;;;;5007601;28;20480;-74
2024/02/23 05:16:14;;;;;;;11.13;2.80;;;5.00;99.90;;;;;;5011110;28;20485;-73
2024/02/23 05:18:41;;;;;;;14.83;3.27;;;4.90;99.90;;;;;;5007111;28;20462;-74
2024/02/23 05:21:09;;;;;;;8.57;2.40;;;5.00;99.90;;;;;;5010046;28;20557;-74
2024/02/23 05:23:36;;;;;;;8.47;2.73;;;5.00;99.90;;;;;;5012291;28;20563;-73
2024/02/23 05:26:03;;;;;;;7.17;2.40;;;5.00;99.90;;;;;;5003266;28;20454;-74
2024/02/23 05:28:30;;;;;;;7.00;2.27;;;5.00;99.90;;;;;;4993340;28;20464;-73
2024/02/23 05:30:58;;;;;;;8.07;2.23;;;5.10;99.90;;;;;;5009319;28;20487;-73
2024/02/23 05:33:25;;;;;;;9.47;2.50;;;5.00;99.90;;;;;;5008416;28;20484;-73
2024/02/23 05:35:52;;;;;;;9.23;2.10;;;5.00;99.90;;;;;;5008546;28;20448;-73
2024/02/23 05:38:19;;;;;;;13.73;3.70;;;5.00;99.90;;;;;;5013776;28;20506;-73
2024/02/23 05:40:47;;;;;;;11.10;2.23;;;5.00;99.90;;;;;;5013757;28;20448;-72
2024/02/23 05:43:13;;;;;;;5.40;2.13;;;5.10;99.90;;;;;;5012989;28;20512;-72
2024/02/23 05:45:40;;;;;;;6.13;2.00;;;5.10;99.90;;;;;;5007115;28;20477;-73
2024/02/23 05:48:09;;;;;;;8.60;2.20;;;5.10;99.90;;;;;;4992710;28;20465;-73
2024/02/23 05:50:36;;;;;;;9.60;2.53;;;5.10;99.90;;;;;;5005624;28;21043;-73
2024/02/23 05:53:04;;;;;;;5.10;2.20;;;5.10;99.90;;;;;;5002663;28;20477;-73
2024/02/23 05:55:31;;;;;;;8.83;2.27;;;5.20;99.90;;;;;;4992542;28;20468;-73
2024/02/23 05:57:58;;;;;;;6.47;3.10;;;5.30;99.90;;;;;;4992307;28;20454;-72
2024/02/23 06:00:25;;;;;;;8.63;2.47;;;5.20;99.90;;;;;;5004677;28;20445;-73
2024/02/23 06:02:51;;;;;;;6.43;2.00;;;5.20;99.90;;;;;;5011260;28;20531;-73
2024/02/23 06:05:20;;;;;;;11.60;2.40;;;5.20;99.90;;;;;;5012025;28;20469;-73
2024/02/23 06:07:46;;;;;;;8.30;2.93;;;5.20;99.90;;;;;;5012130;28;20453;-72
2024/02/23 06:10:13;;;;;;;7.20;4.10;;;5.30;99.90;;;;;;5011544;28;20484;-73
2024/02/23 06:12:40;;;;;;;8.50;2.17;;;5.40;99.90;;;;;;5005736;28;20484;-73
2024/02/23 06:15:08;;;;;;;6.57;2.30;;;5.30;99.90;;;;;;5001292;28;20552;-74
2024/02/23 06:17:35;;;;;;;5.10;3.10;;;5.30;99.90;;;;;;5007093;28;20833;-73
2024/02/23 06:20:00;;;;;;;7.23;2.30;;;5.20;99.90;;;;;;4992134;28;20462;-73
2024/02/23 06:22:29;;;;;;;6.53;2.50;;;5.10;99.90;;;;;;4992361;28;20887;-72
2024/02/23 06:24:56;;;;;;;3.97;1.80;;;5.10;99.90;;;;;;4999640;28;20198;-73
2024/02/23 06:27:22;;;;;;;4.47;2.27;;;5.20;99.90;;;;;;5008360;28;20454;-73
2024/02/23 06:29:50;;;;;;;8.63;2.57;;;5.30;99.90;;;;;;4990388;28;20464;-74
2024/02/23 06:32:17;;;;;;;5.40;2.43;;;5.10;99.90;;;;;;4995350;28;20460;-73
2024/02/23 06:34:43;;;;;;;13.53;2.50;;;5.10;99.90;;;;;;5008919;28;20479;-73
2024/02/23 06:37:10;;;;;;;10.73;2.50;;;5.00;99.90;;;;;;5015230;28;20453;-72
2024/02/23 06:39:38;;;;;;;5.70;2.70;;;5.00;99.90;;;;;;5001693;28;20468;-73
2024/02/23 06:42:05;;;;;;;8.60;3.27;;;4.90;99.90;;;;;;4994723;28;20456;-72
2024/02/23 06:44:32;;;;;;;18.33;16.70;;;4.90;99.90;;;;;;5007332;28;20465;-73
2024/02/23 06:46:59;;;;;;;8.53;4.83;;;4.80;99.90;;;;;;5014494;28;20461;-73
2024/02/23 06:49:26;;;;;;;6.50;4.33;;;4.70;99.90;;;;;;5003133;28;20912;-73
2024/02/23 06:51:53;;;;;;;6.07;3.90;;;4.60;99.90;;;;;;4995226;28;20481;-73
2024/02/23 06:54:20;;;;;;;10.70;6.10;;;4.70;99.90;;;;;;4998052;28;20968;-73
2024/02/23 06:56:48;;;;;;;12.63;5.93;;;4.80;99.90;;;;;;5007619;28;20453;-73
2024/02/23 06:59:15;;;;;;;8.00;5.40;;;5.00;99.90;;;;;;4995120;28;20473;-72
2024/02/23 07:01:49;;;;;;;8.10;5.40;;;5.00;99.90;;;;;;4995131;28;20453;-73
2024/02/23 07:04:16;;;;;;;5.90;3.33;;;5.10;99.90;;;;;;4995078;28;20487;-73
2024/02/23 07:06:43;;;;;;;8.47;3.10;;;5.30;99.90;;;;;;4995345;28;20454;-72
2024/02/23 07:09:11;;;;;;;6.37;3.10;;;5.40;99.90;;;;;;5012830;28;20553;-71
2024/02/23 07:11:38;;;;;;;9.30;3.03;;;5.40;99.90;;;;;;5001199;28;20485;-72
2024/02/23 07:14:07;;;;;;;8.53;2.63;;;5.50;99.90;;;;;;4994616;28;21044;-72
2024/02/23 07:16:33;;;;;;;6.03;2.77;;;5.60;99.60;;;;;;5000112;28;20845;-72
2024/02/23 07:19:00;;;;;;;4.93;2.33;;;5.70;99.90;;;;;;5014692;28;20449;-73
2024/02/23 07:21:27;;;;;;;6.27;3.37;;;5.70;99.90;;;;;;5014096;28;20838;-73
2024/02/23 07:23:54;;;;;;;6.53;3.83;;;5.60;99.90;;;;;;5013496;28;20483;-73
2024/02/23 07:26:22;;;;;;;7.70;4.70;;;5.70;99.90;;;;;;5014187;28;20956;-73
2024/02/23 07:28:49;;;;;;;6.10;3.40;;;5.70;99.90;;;;;;5014471;28;20449;-72
2024/02/23 07:31:17;;;;;;;6.10;4.13;;;5.70;99.90;;;;;;5014069;28;20485;-73
2024/02/23 07:33:44;;;;;;;6.83;4.40;;;5.80;99.90;;;;;;5013439;28;20483;-73
2024/02/23 07:36:15;;;;;;;7.13;3.97;;;5.80;99.90;;;;;;5014059;28;20503;-72
2024/02/23 07:38:43;;;;;;;7.37;4.10;;;5.90;99.90;;;;;;5008799;28;20464;-73
2024/02/23 07:41:10;;;;;;;5.20;3.57;;;5.90;99.90;;;;;;5012573;28;20869;-73
2024/02/23 07:43:37;;;;;;;10.20;3.50;;;5.90;99.90;;;;;;5007148;28;20474;-72
2024/02/23 07:46:08;;;;;;;7.07;4.00;;;5.80;99.90;;;;;;4994634;28;20453;-73
2024/02/23 07:48:36;;;;;;;14.00;3.60;;;5.80;99.90;;;;;;5013169;28;20457;-73
2024/02/23 07:51:03;;;;;;;8.80;3.83;;;5.90;99.90;;;;;;5012842;28;20484;-72
2024/02/23 07:53:30;;;;;;;12.03;5.07;;;6.00;99.90;;;;;;5012914;28;20477;-72
2024/02/23 07:55:59;;;;;;;7.53;2.93;;;6.10;99.90;;;;;;5005106;28;20461;-72
2024/02/23 07:58:26;;;;;;;6.97;2.40;;;6.20;99.90;;;;;;5000930;28;20474;-75
2024/02/23 08:00:54;;;;;;;5.50;2.77;;;6.30;99.90;;;;;;5008519;28;20535;-76
2024/02/23 08:03:20;;;;;;;11.67;2.10;;;6.40;99.90;;;;;;5012463;28;20469;-72
2024/02/23 08:05:49;;;;;;;6.55;2.00;;;6.40;99.80;;;;;;5013052;28;20455;-71
2024/02/23 08:08:15;;;;;;;7.37;1.83;;;6.50;97.10;;;;;;5013142;28;20206;-72
2024/02/23 08:10:43;;;;;;;7.93;2.30;;;6.70;96.80;;;;;;5011590;28;20485;-70
2024/02/23 08:13:10;;;;;;;9.47;2.00;;;6.70;96.80;;;;;;5012582;28;20477;-71
2024/02/23 08:15:37;;;;;;;8.47;2.20;;;6.80;96.70;;;;;;5013487;28;20453;-72
2024/02/23 08:18:04;;;;;;;6.23;1.57;;;6.90;96.80;;;;;;5013221;28;20453;-71
2024/02/23 08:20:31;;;;;;;7.50;1.70;;;6.90;96.80;;;;;;5013297;28;20456;-72
2024/02/23 08:22:59;;;;;;;4.60;1.60;;;7.00;96.90;;;;;;5013083;28;20566;-70
2024/02/23 08:25:28;;;;;;;8.53;2.20;;;7.00;94.20;;;;;;5005708;28;20453;-71
2024/02/23 08:27:55;;;;;;;4.50;1.50;;;7.00;93.60;;;;;;5013364;28;20452;-71
2024/02/23 08:30:22;;;;;;;7.80;1.73;;;7.10;96.90;;;;;;5013228;28;20449;-71
2024/02/23 08:32:49;;;;;;;6.77;1.80;;;7.20;93.70;;;;;;5012588;28;21012;-71
2024/02/23 08:35:16;;;;;;;5.30;1.60;;;7.20;94.70;;;;;;5013091;28;20460;-74
2024/02/23 08:37:43;;;;;;;6.10;1.40;;;7.20;96.90;;;;;;5013011;28;20453;-71
2024/02/23 08:40:12;;;;;;;5.73;1.47;;;7.40;94.80;;;;;;5010141;28;20453;-71
2024/02/23 08:42:39;;;;;;;7.03;1.40;;;7.70;93.90;;;;;;5012926;28;20469;-71
2024/02/23 08:45:07;;;;;;;7.13;1.60;;;7.80;90.60;;;;;;5013310;28;20453;-71
2024/02/23 08:47:35;;;;;;;3.60;1.03;;;7.80;90.60;;;;;;5013650;28;20452;-71
2024/02/23 08:50:02;;;;;;;4.37;1.90;;;7.70;90.50;;;;;;5013148;28;20459;-72
2024/02/23 08:52:29;;;;;;;4.57;1.20;;;7.70;90.50;;;;;;5013015;28;20503;-71
2024/02/23 08:54:56;;;;;;;12.77;1.70;;;7.60;91.50;;;;;;5012835;28;20929;-71
2024/02/23 08:57:25;;;;;;;8.40;1.30;;;7.60;90.50;;;;;;5004789;28;20960;-71
2024/02/23 08:59:53;;;;;;;4.50;1.40;;;7.60;90.50;;;;;;5012452;28;20547;-71
2024/02/23 09:02:20;;;;;;;4.37;1.10;;;7.60;90.50;;;;;;5012634;28;20457;-71
2024/02/23 09:04:46;;;;;;;7.60;1.60;;;7.60;91.60;;;;;;5008703;28;20469;-72
2024/02/23 09:07:13;;;;;;;6.20;1.27;;;7.80;91.30;;;;;;5012259;28;20539;-71
2024/02/23 09:09:40;;;;;;;7.43;1.30;;;8.00;90.60;;;;;;5012096;28;20445;-71
2024/02/23 09:12:10;;;;;;;6.03;1.30;;;8.10;90.70;;;;;;5011758;28;20477;-71
2024/02/23 09:14:39;;;;;;;5.13;1.10;;;8.20;90.70;;;;;;5006230;28;20454;-72
2024/02/23 09:17:08;;;;;;;5.80;2.13;;;8.20;90.70;;;;;;5001307;28;20460;-72
2024/02/23 09:19:35;;;;;;;9.90;1.50;;;8.20;90.70;;;;;;5011831;28;20456;-71
2024/02/23 09:22:02;;;;;;;5.40;1.17;;;8.40;90.80;;;;;;5011894;28;20480;-71
2024/02/23 09:24:29;;;;;;;6.30;2.73;;;8.40;90.70;;;;;;5011423;28;20453;-71
2024/02/23 09:26:56;;;;;;;4.60;1.00;;;8.50;90.80;;;;;;5011633;28;20531;-71
2024/02/23 09:29:23;;;;;;;5.70;1.50;;;8.30;84.20;;;;;;5011723;28;20492;-71
2024/02/23 09:31:52;;;;;;;9.77;1.50;;;8.40;90.60;;;;;;5011633;28;20565;-72
2024/02/23 09:34:19;;;;;;;5.63;1.30;;;8.50;89.50;;;;;;5011924;28;20985;-71
2024/02/23 09:36:46;;;;;;;5.40;1.30;;;8.60;90.70;;;;;;5004362;28;20836;-71
2024/02/23 09:39:13;;;;;;;4.50;1.20;;;8.60;90.80;;;;;;5011552;28;20444;-70
2024/02/23 09:41:40;;;;;;;6.70;1.43;;;8.60;84.80;;;;;;5012003;28;20461;-72
2024/02/23 09:44:09;;;;;;;7.83;1.30;;;8.60;87.70;;;;;;5010263;28;20476;-71
2024/02/23 09:46:38;;;;;;;6.17;1.10;;;8.80;90.30;;;;;;4992386;28;20489;-73
2024/02/23 09:49:07;;;;;;;4.80;1.10;;;8.90;84.70;;;;;;4992304;28;20453;-72
2024/02/23 09:51:36;;;;;;;8.20;1.53;;;9.00;84.80;;;;;;4992415;28;20862;-72
2024/02/23 09:54:03;;;;;;;10.63;1.57;;;9.00;91.00;;;;;;5008513;28;20512;-69
2024/02/23 09:56:30;;;;;;;5.63;1.40;;;9.00;84.80;;;;;;4999920;28;20464;-69
2024/02/23 09:59:00;;;;;;;4.30;1.10;;;9.20;85.00;;;;;;4992338;28;20473;-69
2024/02/23 10:01:30;;;;;;;5.10;1.40;;;9.20;77.20;;;;;;5004354;28;20957;-70
2024/02/23 10:03:58;;;;;;;7.13;1.30;;;9.30;77.30;;;;;;5011648;28;20477;-70
2024/02/23 10:06:27;;;;;;;4.37;1.00;;;9.60;78.20;;;;;;5014870;28;20449;-69
2024/02/23 10:08:54;;;;;;;6.77;1.27;;;10.40;81.20;;;;;;5016054;28;20891;-69
2024/02/23 10:11:21;;;;;;;5.53;1.17;;;10.10;77.00;;;;;;5015851;28;20563;-70
2024/02/23 10:13:49;;;;;;;4.80;1.17;;;10.30;77.20;;;;;;5008642;28;20481;-69
2024/02/23 10:16:16;;;;;;;8.60;1.10;;;10.30;77.20;;;;;;5014633;28;20453;-69
2024/02/23 10:18:43;;;;;;;6.97;1.47;;;11.10;78.00;;;;;;5009604;28;20461;-70
2024/02/23 10:21:10;;;;;;;4.90;1.00;;;11.00;61.90;;;;;;4995876;28;20460;-69
2024/02/23 10:23:38;;;;;;;6.13;1.13;;;11.10;62.00;;;;;;5000754;28;20472;-70
2024/02/23 10:26:06;;;;;;;6.23;1.47;;;10.70;61.80;;;;;;5007658;28;20453;-70
2024/02/23 10:28:33;;;;;;;5.70;1.20;;;10.30;61.30;;;;;;5015474;28;20814;-69
2024/02/23 10:31:01;;;;;;;7.57;1.23;;;10.10;61.10;;;;;;5015337;28;20457;-69
2024/02/23 10:33:28;;;;;;;10.80;1.30;;;9.70;61.70;;;;;;5010561;28;20528;-69
2024/02/23 10:35:58;;;;;;;4.80;1.13;;;9.40;61.50;;;;;;4995721;28;20457;-69
2024/02/23 10:38:27;;;;;;;9.00;1.40;;;9.20;65.60;;;;;;5007406;28;20960;-69
2024/02/23 10:40:57;;;;;;;4.90;1.10;;;9.20;69.30;;;;;;5015237;28;20452;-68
2024/02/23 10:43:31;;;;;;;4.30;1.10;;;9.20;69.30;;;;;;5006913;28;20476;-70
2024/02/23 10:45:59;;;;;;;7.20;1.60;;;9.10;65.30;;;;;;5014961;28;20456;-70
2024/02/23 10:48:28;;;;;;;4.40;1.00;;;9.20;68.50;;;;;;5015039;28;20459;-69
2024/02/23 10:50:56;;;;;;;4.47;1.50;;;9.20;69.30;;;;;;5014859;28;20467;-70
2024/02/23 10:53:25;;;;;;;3.70;0.80;;;9.20;69.40;;;;;;4998249;28;20588;-71
2024/02/23 10:55:57;;;;;;;6.80;1.03;;;9.10;62.80;;;;;;5014893;28;20994;-69
2024/02/23 10:58:23;;;;;;;5.87;1.20;;;9.10;73.80;;;;;;5006653;28;20464;-68
2024/02/23 11:00:50;;;;;;;6.83;1.57;;;9.00;77.00;;;;;;5015111;28;20535;-69
2024/02/23 11:03:19;;;;;;;4.60;1.10;;;9.00;77.00;;;;;;5014506;28;20555;-69
2024/02/23 11:05:48;;;;;;;5.20;1.17;;;9.00;77.00;;;;;;5014735;28;20963;-69
2024/02/23 11:08:18;;;;;;;10.23;1.67;;;9.10;77.10;;;;;;5014763;28;20510;-69
2024/02/23 11:10:50;;;;;;;5.43;1.10;;;9.20;69.30;;;;;;5014252;28;20651;-69
2024/02/23 11:13:19;;;;;;;5.30;1.00;;;9.30;69.40;;;;;;5012494;28;20481;-69
2024/02/23 11:15:46;;;;;;;8.37;1.40;;;9.60;69.30;;;;;;5013483;28;20460;-69
2024/02/23 11:18:29;;;;;;;6.53;1.57;;;9.70;69.80;;;;;;5012606;28;21030;-71
2024/02/23 11:20:56;;;;;;;6.13;1.20;;;10.00;61.00;;;;;;5004834;28;20540;-69
2024/02/23 11:23:25;;;;;;;7.30;1.57;;;10.00;65.80;;;;;;4992323;28;20473;-70
2024/02/23 11:26:06;;;;;;;6.73;1.23;;;10.10;62.30;;;;;;4992875;28;20461;-69
2024/02/23 11:28:42;;;;;;;7.83;1.50;;;9.90;68.40;;;;;;4999781;28;20515;-69
2024/02/23 11:31:13;;;;;;;4.90;1.40;;;9.80;70.20;;;;;;5009071;28;20448;-69
2024/02/23 11:33:40;;;;;;;8.37;1.57;;;9.70;69.80;;;;;;4992928;28;20509;-69
2024/02/23 11:36:08;;;;;;;5.87;1.00;;;9.40;69.60;;;;;;5012159;28;20540;-69
2024/02/23 11:38:35;;;;;;;7.73;1.40;;;9.40;73.20;;;;;;5006008;28;20457;-69
2024/02/23 11:41:03;;;;;;;8.10;1.97;;;9.30;77.30;;;;;;5014094;28;20460;-69
2024/02/23 11:43:30;;;;;;;6.10;1.33;;;9.30;70.50;;;;;;5013597;28;20898;-69
2024/02/23 11:45:58;;;;;;;7.10;1.40;;;9.30;77.20;;;;;;5006004;28;20465;-72
2024/02/23 11:48:25;;;;;;;11.57;1.77;;;9.30;77.20;;;;;;5005856;28;20455;-72
2024/02/23 11:50:52;;;;;;;7.83;1.40;;;9.40;70.50;;;;;;5014083;28;20463;-71
2024/02/23 11:53:21;;;;;;;6.63;1.50;;;9.50;77.40;;;;;;5010680;28;20526;-72
2024/02/23 11:55:49;;;;;;;5.67;1.37;;;9.60;77.50;;;;;;4994235;28;20457;-72
2024/02/23 11:58:16;;;;;;;5.73;1.40;;;9.60;69.70;;;;;;5004425;28;20479;-71
2024/02/23 12:00:43;;;;;;;6.10;1.30;;;9.60;70.10;;;;;;5013650;28;20995;-72
2024/02/23 12:03:11;;;;;;;9.10;1.80;;;9.60;69.70;;;;;;5012779;28;20469;-72
2024/02/23 12:05:38;;;;;;;6.53;1.50;;;9.70;69.90;;;;;;5013863;28;20449;-73
2024/02/23 12:08:05;;;;;;;6.83;1.70;;;9.90;70.00;;;;;;5013568;28;20544;-72
2024/02/23 12:10:32;;;;;;;5.70;1.30;;;9.80;61.80;;;;;;5013777;28;20453;-72
2024/02/23 12:12:59;;;;;;;8.63;1.73;;;9.90;64.60;;;;;;5013240;28;20480;-72
2024/02/23 12:15:28;;;;;;;5.00;1.50;;;9.90;61.90;;;;;;5013516;28;20449;-72
2024/02/23 12:17:58;;;;;;;5.90;1.30;;;10.00;61.00;;;;;;5013729;28;21024;-71
2024/02/23 12:20:26;;;;;;;8.63;1.90;;;10.00;64.50;;;;;;5005977;28;20453;-72
2024/02/23 12:22:56;;;;;;;8.33;1.60;;;10.00;61.00;;;;;;5013142;28;20476;-72
2024/02/23 12:25:23;;;;;;;19.33;2.13;;;10.30;61.30;;;;;;5013442;28;20453;-72
2024/02/23 12:27:55;;;;;;;6.30;2.03;;;10.20;61.70;;;;;;5012745;28;20449;-72
2024/02/23 12:30:22;;;;;;;7.53;1.60;;;10.30;61.30;;;;;;5013072;28;20456;-72
2024/02/23 12:32:49;;;;;;;12.40;1.90;;;10.50;61.50;;;;;;5012328;28;21012;-72
2024/02/23 12:35:16;;;;;;;5.63;1.23;;;10.50;61.40;;;;;;5013229;28;20446;-72
2024/02/23 12:37:45;;;;;;;8.73;2.13;;;10.50;61.40;;;;;;5013150;28;20457;-72
2024/02/23 12:40:13;;;;;;;8.17;1.73;;;10.40;61.40;;;;;;5012982;28;20453;-72
2024/02/23 12:42:40;;;;;;;6.60;2.00;;;10.30;61.70;;;;;;5012525;28;20984;-71
2024/02/23 12:45:08;;;;;;;7.70;1.53;;;10.30;61.30;;;;;;5012962;28;20970;-72
2024/02/23 12:47:34;;;;;;;5.50;1.47;;;10.50;61.40;;;;;;5004946;28;20504;-72
2024/02/23 12:50:01;;;;;;;6.70;1.43;;;10.80;61.70;;;;;;5012725;28;20988;-72
2024/02/23 12:52:28;;;;;;;8.37;1.70;;;10.90;61.80;;;;;;5000457;28;20496;-72